createdAt,value
2017-04-20T00:00:20.239Z,1030.46
2017-04-20T00:00:46.318Z,1030.49
2017-04-20T00:01:12.469Z,1030.48
2017-04-20T00:01:38.547Z,1030.48
2017-04-20T00:02:04.628Z,1030.45
2017-04-20T00:02:30.736Z,1030.52
2017-04-20T00:02:56.816Z,1030.47
2017-04-20T00:03:22.894Z,1030.44
2017-04-20T00:03:48.973Z,1030.41
2017-04-20T00:04:15.053Z,1030.45
2017-04-20T00:04:41.131Z,1030.45
2017-04-20T00:05:07.211Z,1030.41
2017-04-20T00:05:33.295Z,1030.4
2017-04-20T00:05:59.421Z,1030.42
2017-04-20T00:06:25.502Z,1030.46
2017-04-20T00:06:51.604Z,1030.45
2017-04-20T00:07:17.682Z,1030.42
2017-04-20T00:07:43.813Z,1030.41
2017-04-20T00:08:09.895Z,1030.42
2017-04-20T00:08:36.022Z,1030.43
2017-04-20T00:09:02.105Z,1030.39
2017-04-20T00:09:28.232Z,1030.42
2017-04-20T00:09:54.336Z,1030.39
2017-04-20T00:10:20.414Z,1030.39
2017-04-20T00:10:46.493Z,1030.39
2017-04-20T00:11:12.577Z,1030.4
2017-04-20T00:11:38.835Z,1030.43
2017-04-20T00:12:04.942Z,1030.37
2017-04-20T00:12:31.023Z,1030.4
2017-04-20T00:12:57.154Z,1030.42
2017-04-20T00:13:23.233Z,1030.45
2017-04-20T00:13:49.337Z,1030.46
2017-04-20T00:14:15.438Z,1030.39
2017-04-20T00:14:41.543Z,1030.46
2017-04-20T00:15:07.670Z,1030.47
2017-04-20T00:15:33.749Z,1030.47
2017-04-20T00:15:59.834Z,1030.45
2017-04-20T00:16:25.934Z,1030.47
2017-04-20T00:16:52.013Z,1030.44
2017-04-20T00:17:18.188Z,1030.47
2017-04-20T00:17:44.267Z,1030.46
2017-04-20T00:18:10.524Z,1030.46
2017-04-20T00:18:36.628Z,1030.44
2017-04-20T00:19:02.734Z,1030.46
2017-04-20T00:19:28.861Z,1030.49
2017-04-20T00:19:54.988Z,1030.48
2017-04-20T00:20:21.094Z,1030.45
2017-04-20T00:20:47.198Z,1030.5
2017-04-20T00:21:13.302Z,1030.47
2017-04-20T00:21:39.384Z,1030.51
2017-04-20T00:22:05.489Z,1030.46
2017-04-20T00:22:31.570Z,1030.47
2017-04-20T00:22:57.700Z,1030.51
2017-04-20T00:23:23.828Z,1030.46
2017-04-20T00:23:49.934Z,1030.49
2017-04-20T00:24:16.085Z,1030.5
2017-04-20T00:24:42.214Z,1030.45
2017-04-20T00:25:08.339Z,1030.45
2017-04-20T00:25:34.422Z,1030.44
2017-04-20T00:26:00.656Z,1030.46
2017-04-20T00:26:26.736Z,1030.49
2017-04-20T00:26:52.816Z,1030.47
2017-04-20T00:27:18.922Z,1030.49
2017-04-20T00:27:45.024Z,1030.44
2017-04-20T00:28:11.107Z,1030.43
2017-04-20T00:28:37.282Z,1030.45
2017-04-20T00:29:03.435Z,1030.45
2017-04-20T00:29:29.561Z,1030.45
2017-04-20T00:29:55.641Z,1030.46
2017-04-20T00:30:21.723Z,1030.43
2017-04-20T00:30:47.826Z,1030.45
2017-04-20T00:31:13.906Z,1030.4
2017-04-20T00:31:39.973Z,1030.41
2017-04-20T00:32:06.077Z,1030.36
2017-04-20T00:32:32.155Z,1030.36
2017-04-20T00:32:58.283Z,1030.35
2017-04-20T00:33:24.459Z,1030.33
2017-04-20T00:33:50.538Z,1030.35
2017-04-20T00:34:16.618Z,1030.35
2017-04-20T00:34:42.725Z,1030.31
2017-04-20T00:35:08.850Z,1030.3
2017-04-20T00:35:34.953Z,1030.31
2017-04-20T00:36:01.031Z,1030.3
2017-04-20T00:36:27.111Z,1030.32
2017-04-20T00:36:53.194Z,1030.3
2017-04-20T00:37:19.315Z,1030.34
2017-04-20T00:37:45.399Z,1030.34
2017-04-20T00:38:11.479Z,1030.35
2017-04-20T00:38:37.557Z,1030.36
2017-04-20T00:39:03.636Z,1030.36
2017-04-20T00:39:29.734Z,1030.34
2017-04-20T00:39:55.815Z,1030.33
2017-04-20T00:40:21.896Z,1030.33
2017-04-20T00:40:48.002Z,1030.31
2017-04-20T00:41:14.103Z,1030.32
2017-04-20T00:41:40.182Z,1030.33
2017-04-20T00:42:06.262Z,1030.33
2017-04-20T00:42:32.343Z,1030.35
2017-04-20T00:42:58.423Z,1030.32
2017-04-20T00:43:24.501Z,1030.33
2017-04-20T00:43:50.580Z,1030.29
2017-04-20T00:44:16.663Z,1030.31
2017-04-20T00:44:42.768Z,1030.32
2017-04-20T00:45:09.033Z,1030.34
2017-04-20T00:45:35.115Z,1030.26
2017-04-20T00:46:01.195Z,1030.26
2017-04-20T00:46:27.277Z,1030.3
2017-04-20T00:46:53.353Z,1030.24
2017-04-20T00:47:19.432Z,1030.29
2017-04-20T00:47:45.514Z,1030.3
2017-04-20T00:48:11.592Z,1030.3
2017-04-20T00:48:37.672Z,1030.28
2017-04-20T00:49:03.780Z,1030.27
2017-04-20T00:49:29.859Z,1030.26
2017-04-20T00:49:55.939Z,1030.31
2017-04-20T00:50:22.044Z,1030.28
2017-04-20T00:50:48.123Z,1030.28
2017-04-20T00:51:14.247Z,1030.3
2017-04-20T00:51:40.329Z,1030.32
2017-04-20T00:52:06.431Z,1030.32
2017-04-20T00:52:32.510Z,1030.28
2017-04-20T00:52:58.612Z,1030.29
2017-04-20T00:53:24.718Z,1030.28
2017-04-20T00:53:50.798Z,1030.32
2017-04-20T00:54:16.930Z,1030.27
2017-04-20T00:54:43.010Z,1030.32
2017-04-20T00:55:09.114Z,1030.31
2017-04-20T00:55:35.192Z,1030.32
2017-04-20T00:56:01.294Z,1030.3
2017-04-20T00:56:27.398Z,1030.27
2017-04-20T00:56:53.502Z,1030.23
2017-04-20T00:57:19.583Z,1030.26
2017-04-20T00:57:45.704Z,1030.3
2017-04-20T00:58:11.786Z,1030.21
2017-04-20T00:58:37.926Z,1030.25
2017-04-20T00:59:04.004Z,1030.24
2017-04-20T00:59:30.104Z,1030.23
2017-04-20T00:59:56.183Z,1030.27
2017-04-20T01:00:22.260Z,1030.25
2017-04-20T01:00:48.361Z,1030.25
2017-04-20T01:01:14.444Z,1030.26
2017-04-20T01:01:40.547Z,1030.25
2017-04-20T01:02:06.624Z,1030.23
2017-04-20T01:02:32.703Z,1030.23
2017-04-20T01:02:58.782Z,1030.24
2017-04-20T01:03:24.863Z,1030.26
2017-04-20T01:03:50.965Z,1030.22
2017-04-20T01:04:17.047Z,1030.21
2017-04-20T01:04:43.128Z,1030.21
2017-04-20T01:05:09.209Z,1030.18
2017-04-20T01:05:35.290Z,1030.18
2017-04-20T01:06:01.372Z,1030.21
2017-04-20T01:06:27.472Z,1030.22
2017-04-20T01:06:53.555Z,1030.24
2017-04-20T01:07:19.637Z,1030.25
2017-04-20T01:07:45.738Z,1030.23
2017-04-20T01:08:11.819Z,1030.24
2017-04-20T01:08:37.965Z,1030.22
2017-04-20T01:09:04.044Z,1030.25
2017-04-20T01:09:30.124Z,1030.23
2017-04-20T01:09:56.226Z,1030.25
2017-04-20T01:10:22.305Z,1030.26
2017-04-20T01:10:48.410Z,1030.22
2017-04-20T01:11:14.512Z,1030.24
2017-04-20T01:11:40.592Z,1030.21
2017-04-20T01:12:06.697Z,1030.17
2017-04-20T01:12:32.774Z,1030.21
2017-04-20T01:12:58.877Z,1030.2
2017-04-20T01:13:24.957Z,1030.18
2017-04-20T01:13:51.034Z,1030.22
2017-04-20T01:14:17.114Z,1030.19
2017-04-20T01:14:43.194Z,1030.23
2017-04-20T01:15:09.275Z,1030.22
2017-04-20T01:15:35.354Z,1030.18
2017-04-20T01:16:01.458Z,1030.2
2017-04-20T01:16:27.537Z,1030.21
2017-04-20T01:16:53.620Z,1030.2
2017-04-20T01:17:19.700Z,1030.2
2017-04-20T01:17:45.802Z,1030.22
2017-04-20T01:18:11.884Z,1030.2
2017-04-20T01:18:37.964Z,1030.17
2017-04-20T01:19:04.046Z,1030.2
2017-04-20T01:19:30.127Z,1030.2
2017-04-20T01:19:56.205Z,1030.18
2017-04-20T01:20:22.287Z,1030.17
2017-04-20T01:20:48.371Z,1030.19
2017-04-20T01:21:14.475Z,1030.2
2017-04-20T01:21:40.556Z,1030.2
2017-04-20T01:22:06.660Z,1030.15
2017-04-20T01:22:32.739Z,1030.19
2017-04-20T01:22:58.840Z,1030.2
2017-04-20T01:23:24.920Z,1030.21
2017-04-20T01:23:51.000Z,1030.18
2017-04-20T01:24:17.078Z,1030.22
2017-04-20T01:24:43.157Z,1030.22
2017-04-20T01:25:09.238Z,1030.2
2017-04-20T01:25:35.338Z,1030.26
2017-04-20T01:26:01.440Z,1030.2
2017-04-20T01:26:27.523Z,1030.24
2017-04-20T01:26:53.623Z,1030.23
2017-04-20T01:27:19.700Z,1030.26
2017-04-20T01:27:45.905Z,1030.24
2017-04-20T01:28:11.986Z,1030.21
2017-04-20T01:28:38.092Z,1030.24
2017-04-20T01:29:04.171Z,1030.26
2017-04-20T01:29:30.253Z,1030.21
2017-04-20T01:29:56.335Z,1030.24
2017-04-20T01:30:22.421Z,1030.22
2017-04-20T01:30:48.496Z,1030.25
2017-04-20T01:31:14.575Z,1030.21
2017-04-20T01:31:40.674Z,1030.27
2017-04-20T01:32:06.757Z,1030.27
2017-04-20T01:32:32.835Z,1030.33
2017-04-20T01:32:58.914Z,1030.3
2017-04-20T01:33:25.016Z,1030.27
2017-04-20T01:33:51.100Z,1030.29
2017-04-20T01:34:17.181Z,1030.31
2017-04-20T01:34:43.260Z,1030.31
2017-04-20T01:35:09.361Z,1030.3
2017-04-20T01:35:35.458Z,1030.32
2017-04-20T01:36:01.577Z,1030.3
2017-04-20T01:36:27.637Z,1030.3
2017-04-20T01:36:53.719Z,1030.32
2017-04-20T01:37:19.800Z,1030.32
2017-04-20T01:37:45.902Z,1030.35
2017-04-20T01:38:12.023Z,1030.29
2017-04-20T01:38:38.102Z,1030.32
2017-04-20T01:39:04.203Z,1030.32
2017-04-20T01:39:30.295Z,1030.28
2017-04-20T01:39:56.409Z,1030.31
2017-04-20T01:40:22.488Z,1030.28
2017-04-20T01:40:48.570Z,1030.29
2017-04-20T01:41:14.653Z,1030.29
2017-04-20T01:41:40.757Z,1030.29
2017-04-20T01:42:06.834Z,1030.3
2017-04-20T01:42:32.912Z,1030.29
2017-04-20T01:42:59.014Z,1030.28
2017-04-20T01:43:25.094Z,1030.29
2017-04-20T01:43:51.195Z,1030.32
2017-04-20T01:44:17.274Z,1030.27
2017-04-20T01:44:43.379Z,1030.29
2017-04-20T01:45:09.459Z,1030.25
2017-04-20T01:45:35.538Z,1030.27
2017-04-20T01:46:01.620Z,1030.31
2017-04-20T01:46:27.703Z,1030.33
2017-04-20T01:46:53.784Z,1030.31
2017-04-20T01:47:19.862Z,1030.33
2017-04-20T01:47:45.963Z,1030.36
2017-04-20T01:48:12.044Z,1030.32
2017-04-20T01:48:38.177Z,1030.34
2017-04-20T01:49:04.329Z,1030.34
2017-04-20T01:49:30.408Z,1030.27
2017-04-20T01:49:56.491Z,1030.27
2017-04-20T01:50:22.573Z,1030.28
2017-04-20T01:50:48.676Z,1030.3
2017-04-20T01:51:14.753Z,1030.24
2017-04-20T01:51:40.829Z,1030.28
2017-04-20T01:52:06.911Z,1030.25
2017-04-20T01:52:32.992Z,1030.28
2017-04-20T01:52:59.117Z,1030.28
2017-04-20T01:53:25.267Z,1030.26
2017-04-20T01:53:51.348Z,1030.22
2017-04-20T01:54:17.451Z,1030.26
2017-04-20T01:54:43.580Z,1030.25
2017-04-20T01:55:09.728Z,1030.24
2017-04-20T01:55:35.836Z,1030.28
2017-04-20T01:56:01.920Z,1030.24
2017-04-20T01:56:28.025Z,1030.24
2017-04-20T01:56:54.105Z,1030.26
2017-04-20T01:57:20.212Z,1030.24
2017-04-20T01:57:46.337Z,1030.26
2017-04-20T01:58:12.415Z,1030.24
2017-04-20T01:58:38.543Z,1030.26
2017-04-20T01:59:04.665Z,1030.28
2017-04-20T01:59:30.772Z,1030.23
2017-04-20T01:59:56.853Z,1030.29
2017-04-20T02:00:23.000Z,1030.26
2017-04-20T02:00:49.105Z,1030.27
2017-04-20T02:01:15.186Z,1030.26
2017-04-20T02:01:41.266Z,1030.29
2017-04-20T02:02:07.346Z,1030.28
2017-04-20T02:02:33.426Z,1030.25
2017-04-20T02:02:59.530Z,1030.28
2017-04-20T02:03:25.632Z,1030.26
2017-04-20T02:03:51.713Z,1030.29
2017-04-20T02:04:17.841Z,1030.26
2017-04-20T02:04:43.948Z,1030.26
2017-04-20T02:05:10.026Z,1030.27
2017-04-20T02:05:36.107Z,1030.24
2017-04-20T02:06:02.189Z,1030.22
2017-04-20T02:06:28.264Z,1030.24
2017-04-20T02:06:54.370Z,1030.26
2017-04-20T02:07:20.508Z,1030.24
2017-04-20T02:07:46.605Z,1030.25
2017-04-20T02:08:12.731Z,1030.21
2017-04-20T02:08:38.881Z,1030.19
2017-04-20T02:09:05.007Z,1030.19
2017-04-20T02:09:31.115Z,1030.23
2017-04-20T02:09:57.241Z,1030.23
2017-04-20T02:10:23.343Z,1030.26
2017-04-20T02:10:49.446Z,1030.26
2017-04-20T02:11:15.546Z,1030.24
2017-04-20T02:11:41.648Z,1030.25
2017-04-20T02:12:07.753Z,1030.26
2017-04-20T02:12:33.881Z,1030.23
2017-04-20T02:13:00.009Z,1030.19
2017-04-20T02:13:26.092Z,1030.21
2017-04-20T02:13:52.218Z,1030.16
2017-04-20T02:14:18.320Z,1030.2
2017-04-20T02:14:44.447Z,1030.16
2017-04-20T02:15:10.551Z,1030.14
2017-04-20T02:15:36.655Z,1030.13
2017-04-20T02:16:02.759Z,1030.13
2017-04-20T02:16:28.891Z,1030.13
2017-04-20T02:16:54.970Z,1030.09
2017-04-20T02:17:21.050Z,1030.11
2017-04-20T02:17:47.154Z,1030.15
2017-04-20T02:18:13.255Z,1030.18
2017-04-20T02:18:39.358Z,1030.14
2017-04-20T02:19:05.462Z,1030.16
2017-04-20T02:19:31.589Z,1030.18
2017-04-20T02:19:57.694Z,1030.13
2017-04-20T02:20:23.777Z,1030.19
2017-04-20T02:20:49.857Z,1030.18
2017-04-20T02:21:15.936Z,1030.23
2017-04-20T02:21:42.017Z,1030.19
2017-04-20T02:22:08.121Z,1030.19
2017-04-20T02:22:34.245Z,1030.18
2017-04-20T02:23:00.450Z,1030.2
2017-04-20T02:23:26.553Z,1030.19
2017-04-20T02:23:52.681Z,1030.18
2017-04-20T02:24:18.863Z,1030.23
2017-04-20T02:24:44.943Z,1030.2
2017-04-20T02:25:11.031Z,1030.23
2017-04-20T02:25:37.131Z,1030.21
2017-04-20T02:26:03.233Z,1030.21
2017-04-20T02:26:29.314Z,1030.22
2017-04-20T02:26:55.392Z,1030.21
2017-04-20T02:27:21.518Z,1030.21
2017-04-20T02:27:47.659Z,1030.27
2017-04-20T02:28:13.807Z,1030.22
2017-04-20T02:28:39.911Z,1030.2
2017-04-20T02:29:06.040Z,1030.18
2017-04-20T02:29:32.165Z,1030.19
2017-04-20T02:29:58.270Z,1030.17
2017-04-20T02:30:24.373Z,1030.17
2017-04-20T02:30:50.453Z,1030.21
2017-04-20T02:31:16.558Z,1030.17
2017-04-20T02:31:42.659Z,1030.19
2017-04-20T02:32:08.873Z,1030.19
2017-04-20T02:32:34.954Z,1030.15
2017-04-20T02:33:01.054Z,1030.23
2017-04-20T02:33:27.180Z,1030.2
2017-04-20T02:33:53.332Z,1030.23
2017-04-20T02:34:19.459Z,1030.22
2017-04-20T02:34:45.561Z,1030.23
2017-04-20T02:35:11.660Z,1030.19
2017-04-20T02:35:37.764Z,1030.2
2017-04-20T02:36:03.893Z,1030.21
2017-04-20T02:36:30.010Z,1030.2
2017-04-20T02:36:56.101Z,1030.22
2017-04-20T02:37:22.206Z,1030.25
2017-04-20T02:37:48.309Z,1030.22
2017-04-20T02:38:14.412Z,1030.26
2017-04-20T02:38:40.538Z,1030.24
2017-04-20T02:39:06.666Z,1030.23
2017-04-20T02:39:32.795Z,1030.26
2017-04-20T02:39:58.872Z,1030.29
2017-04-20T02:40:24.955Z,1030.28
2017-04-20T02:40:51.103Z,1030.27
2017-04-20T02:41:17.186Z,1030.25
2017-04-20T02:41:43.291Z,1030.25
2017-04-20T02:42:09.371Z,1030.31
2017-04-20T02:42:35.498Z,1030.24
2017-04-20T02:43:01.645Z,1030.24
2017-04-20T02:43:27.727Z,1030.24
2017-04-20T02:43:53.833Z,1030.29
2017-04-20T02:44:19.914Z,1030.28
2017-04-20T02:44:45.996Z,1030.28
2017-04-20T02:45:12.104Z,1030.3
2017-04-20T02:45:38.184Z,1030.29
2017-04-20T02:46:04.330Z,1030.29
2017-04-20T02:46:30.408Z,1030.28
2017-04-20T02:46:56.510Z,1030.28
2017-04-20T02:47:22.591Z,1030.32
2017-04-20T02:47:48.743Z,1030.31
2017-04-20T02:48:14.868Z,1030.36
2017-04-20T02:48:40.969Z,1030.32
2017-04-20T02:49:07.117Z,1030.34
2017-04-20T02:49:33.244Z,1030.36
2017-04-20T02:49:59.366Z,1030.33
2017-04-20T02:50:25.467Z,1030.4
2017-04-20T02:50:51.547Z,1030.34
2017-04-20T02:51:17.650Z,1030.39
2017-04-20T02:51:43.730Z,1030.34
2017-04-20T02:52:09.829Z,1030.4
2017-04-20T02:52:35.982Z,1030.37
2017-04-20T02:53:02.133Z,1030.36
2017-04-20T02:53:28.238Z,1030.37
2017-04-20T02:53:54.370Z,1030.39
2017-04-20T02:54:20.499Z,1030.39
2017-04-20T02:54:46.605Z,1030.39
2017-04-20T02:55:12.683Z,1030.41
2017-04-20T02:55:38.766Z,1030.39
2017-04-20T02:56:04.848Z,1030.39
2017-04-20T02:56:30.976Z,1030.4
2017-04-20T02:56:57.056Z,1030.42
2017-04-20T02:57:23.182Z,1030.39
2017-04-20T02:57:49.288Z,1030.4
2017-04-20T02:58:15.410Z,1030.38
2017-04-20T02:58:41.540Z,1030.35
2017-04-20T02:59:07.644Z,1030.37
2017-04-20T02:59:33.749Z,1030.38
2017-04-20T02:59:59.924Z,1030.39
2017-04-20T03:00:26.055Z,1030.42
2017-04-20T03:00:52.134Z,1030.44
2017-04-20T03:01:18.240Z,1030.38
2017-04-20T03:01:44.342Z,1030.38
2017-04-20T03:02:10.427Z,1030.41
2017-04-20T03:02:36.507Z,1030.4
2017-04-20T03:03:02.635Z,1030.38
2017-04-20T03:03:28.786Z,1030.37
2017-04-20T03:03:54.886Z,1030.39
2017-04-20T03:04:21.039Z,1030.38
2017-04-20T03:04:47.140Z,1030.36
2017-04-20T03:05:13.215Z,1030.37
2017-04-20T03:05:39.318Z,1030.4
2017-04-20T03:06:05.442Z,1030.39
2017-04-20T03:06:31.521Z,1030.41
2017-04-20T03:06:57.624Z,1030.41
2017-04-20T03:07:23.705Z,1030.38
2017-04-20T03:07:49.810Z,1030.41
2017-04-20T03:08:15.999Z,1030.39
2017-04-20T03:08:42.126Z,1030.4
2017-04-20T03:09:08.249Z,1030.39
2017-04-20T03:09:34.326Z,1030.42
2017-04-20T03:10:00.429Z,1030.39
2017-04-20T03:10:26.533Z,1030.38
2017-04-20T03:10:52.658Z,1030.4
2017-04-20T03:11:18.738Z,1030.42
2017-04-20T03:11:44.831Z,1030.43
2017-04-20T03:12:10.910Z,1030.42
2017-04-20T03:12:37.011Z,1030.4
2017-04-20T03:13:03.115Z,1030.44
2017-04-20T03:13:29.193Z,1030.42
2017-04-20T03:13:55.368Z,1030.45
2017-04-20T03:14:21.471Z,1030.38
2017-04-20T03:14:47.621Z,1030.41
2017-04-20T03:15:13.764Z,1030.38
2017-04-20T03:15:39.869Z,1030.37
2017-04-20T03:16:05.950Z,1030.36
2017-04-20T03:16:32.029Z,1030.35
2017-04-20T03:16:58.109Z,1030.36
2017-04-20T03:17:24.239Z,1030.34
2017-04-20T03:17:50.319Z,1030.31
2017-04-20T03:18:16.397Z,1030.28
2017-04-20T03:18:42.496Z,1030.34
2017-04-20T03:19:08.578Z,1030.31
2017-04-20T03:19:34.682Z,1030.31
2017-04-20T03:20:00.810Z,1030.33
2017-04-20T03:20:26.916Z,1030.32
2017-04-20T03:20:53.021Z,1030.35
2017-04-20T03:21:19.452Z,1030.34
2017-04-20T03:21:45.531Z,1030.34
2017-04-20T03:22:11.636Z,1030.35
2017-04-20T03:22:37.716Z,1030.3
2017-04-20T03:23:03.857Z,1030.37
2017-04-20T03:23:29.960Z,1030.37
2017-04-20T03:23:56.088Z,1030.38
2017-04-20T03:24:22.216Z,1030.33
2017-04-20T03:24:48.320Z,1030.32
2017-04-20T03:25:14.423Z,1030.31
2017-04-20T03:25:40.524Z,1030.33
2017-04-20T03:26:06.603Z,1030.33
2017-04-20T03:26:32.707Z,1030.3
2017-04-20T03:26:58.791Z,1030.33
2017-04-20T03:27:24.896Z,1030.36
2017-04-20T03:27:51.021Z,1030.36
2017-04-20T03:28:17.155Z,1030.35
2017-04-20T03:28:43.303Z,1030.32
2017-04-20T03:29:09.450Z,1030.37
2017-04-20T03:29:35.555Z,1030.39
2017-04-20T03:30:01.638Z,1030.36
2017-04-20T03:30:27.715Z,1030.33
2017-04-20T03:30:53.794Z,1030.31
2017-04-20T03:31:19.897Z,1030.36
2017-04-20T03:31:45.977Z,1030.33
2017-04-20T03:32:12.105Z,1030.34
2017-04-20T03:32:38.185Z,1030.35
2017-04-20T03:33:04.286Z,1030.36
2017-04-20T03:33:30.390Z,1030.35
2017-04-20T03:33:56.516Z,1030.33
2017-04-20T03:34:22.816Z,1030.32
2017-04-20T03:34:48.918Z,1030.32
2017-04-20T03:35:15.044Z,1030.34
2017-04-20T03:35:41.124Z,1030.32
2017-04-20T03:36:07.205Z,1030.38
2017-04-20T03:36:33.306Z,1030.34
2017-04-20T03:36:59.407Z,1030.39
2017-04-20T03:37:25.578Z,1030.37
2017-04-20T03:37:51.712Z,1030.34
2017-04-20T03:38:17.811Z,1030.36
2017-04-20T03:38:43.917Z,1030.36
2017-04-20T03:39:10.020Z,1030.33
2017-04-20T03:39:36.144Z,1030.37
2017-04-20T03:40:02.223Z,1030.36
2017-04-20T03:40:28.324Z,1030.35
2017-04-20T03:40:54.428Z,1030.37
2017-04-20T03:41:20.532Z,1030.32
2017-04-20T03:41:46.612Z,1030.36
2017-04-20T03:42:12.715Z,1030.34
2017-04-20T03:42:38.823Z,1030.32
2017-04-20T03:43:04.970Z,1030.36
2017-04-20T03:43:31.074Z,1030.31
2017-04-20T03:43:57.177Z,1030.31
2017-04-20T03:44:23.279Z,1030.33
2017-04-20T03:44:49.383Z,1030.33
2017-04-20T03:45:15.485Z,1030.31
2017-04-20T03:45:41.632Z,1030.29
2017-04-20T03:46:07.758Z,1030.28
2017-04-20T03:46:33.858Z,1030.33
2017-04-20T03:46:59.962Z,1030.28
2017-04-20T03:47:26.068Z,1030.27
2017-04-20T03:47:52.216Z,1030.27
2017-04-20T03:48:18.342Z,1030.26
2017-04-20T03:48:44.427Z,1030.27
2017-04-20T03:49:10.565Z,1030.26
2017-04-20T03:49:36.689Z,1030.25
2017-04-20T03:50:02.853Z,1030.28
2017-04-20T03:50:28.957Z,1030.28
2017-04-20T03:50:55.036Z,1030.25
2017-04-20T03:51:21.151Z,1030.23
2017-04-20T03:51:47.232Z,1030.22
2017-04-20T03:52:13.334Z,1030.27
2017-04-20T03:52:39.438Z,1030.24
2017-04-20T03:53:05.537Z,1030.21
2017-04-20T03:53:31.654Z,1030.22
2017-04-20T03:53:57.758Z,1030.18
2017-04-20T03:54:23.881Z,1030.21
2017-04-20T03:54:50.149Z,1030.18
2017-04-20T03:55:16.252Z,1030.22
2017-04-20T03:55:42.332Z,1030.23
2017-04-20T03:56:08.436Z,1030.22
2017-04-20T03:56:34.516Z,1030.19
2017-04-20T03:57:00.600Z,1030.23
2017-04-20T03:57:26.678Z,1030.19
2017-04-20T03:57:52.807Z,1030.22
2017-04-20T03:58:18.909Z,1030.22
2017-04-20T03:58:45.035Z,1030.2
2017-04-20T03:59:11.137Z,1030.22
2017-04-20T03:59:37.267Z,1030.26
2017-04-20T04:00:03.392Z,1030.24
2017-04-20T04:00:29.494Z,1030.22
2017-04-20T04:00:55.617Z,1030.24
2017-04-20T04:01:21.820Z,1030.25
2017-04-20T04:01:47.922Z,1030.25
2017-04-20T04:02:14.027Z,1030.27
2017-04-20T04:02:40.109Z,1030.24
2017-04-20T04:03:06.190Z,1030.25
2017-04-20T04:03:32.318Z,1030.26
2017-04-20T04:03:58.447Z,1030.24
2017-04-20T04:04:24.598Z,1030.24
2017-04-20T04:04:50.723Z,1030.23
2017-04-20T04:05:16.851Z,1030.26
2017-04-20T04:05:42.956Z,1030.29
2017-04-20T04:06:09.061Z,1030.23
2017-04-20T04:06:35.143Z,1030.24
2017-04-20T04:07:01.401Z,1030.26
2017-04-20T04:07:27.506Z,1030.27
2017-04-20T04:07:53.628Z,1030.23
2017-04-20T04:08:19.728Z,1030.26
2017-04-20T04:08:45.830Z,1030.24
2017-04-20T04:09:11.936Z,1030.26
2017-04-20T04:09:38.184Z,1030.28
2017-04-20T04:10:04.265Z,1030.28
2017-04-20T04:10:30.369Z,1030.32
2017-04-20T04:10:56.449Z,1030.29
2017-04-20T04:11:22.532Z,1030.33
2017-04-20T04:11:48.662Z,1030.28
2017-04-20T04:12:14.741Z,1030.32
2017-04-20T04:12:40.866Z,1030.31
2017-04-20T04:13:06.969Z,1030.3
2017-04-20T04:13:33.073Z,1030.33
2017-04-20T04:13:59.178Z,1030.32
2017-04-20T04:14:25.277Z,1030.33
2017-04-20T04:14:51.381Z,1030.32
2017-04-20T04:15:17.553Z,1030.32
2017-04-20T04:15:43.659Z,1030.31
2017-04-20T04:16:09.807Z,1030.33
2017-04-20T04:16:35.887Z,1030.34
2017-04-20T04:17:01.967Z,1030.32
2017-04-20T04:17:28.045Z,1030.37
2017-04-20T04:17:54.123Z,1030.37
2017-04-20T04:18:20.227Z,1030.35
2017-04-20T04:18:46.328Z,1030.35
2017-04-20T04:19:12.405Z,1030.35
2017-04-20T04:19:38.535Z,1030.36
2017-04-20T04:20:04.591Z,1030.35
2017-04-20T04:20:30.698Z,1030.36
2017-04-20T04:20:56.805Z,1030.36
2017-04-20T04:21:22.910Z,1030.35
2017-04-20T04:21:48.990Z,1030.39
2017-04-20T04:22:15.113Z,1030.4
2017-04-20T04:22:41.235Z,1030.39
2017-04-20T04:23:07.314Z,1030.39
2017-04-20T04:23:33.396Z,1030.39
2017-04-20T04:23:59.476Z,1030.4
2017-04-20T04:24:25.555Z,1030.41
2017-04-20T04:24:51.636Z,1030.39
2017-04-20T04:25:17.767Z,1030.4
2017-04-20T04:25:43.846Z,1030.41
2017-04-20T04:26:09.950Z,1030.42
2017-04-20T04:26:36.031Z,1030.45
2017-04-20T04:27:02.110Z,1030.41
2017-04-20T04:27:28.214Z,1030.39
2017-04-20T04:27:54.296Z,1030.43
2017-04-20T04:28:20.399Z,1030.4
2017-04-20T04:28:46.478Z,1030.45
2017-04-20T04:29:12.557Z,1030.47
2017-04-20T04:29:38.660Z,1030.44
2017-04-20T04:30:04.741Z,1030.44
2017-04-20T04:30:30.823Z,1030.46
2017-04-20T04:30:56.925Z,1030.44
2017-04-20T04:31:23.052Z,1030.45
2017-04-20T04:31:49.155Z,1030.42
2017-04-20T04:32:15.257Z,1030.46
2017-04-20T04:32:41.405Z,1030.45
2017-04-20T04:33:07.486Z,1030.47
2017-04-20T04:33:33.563Z,1030.45
2017-04-20T04:33:59.644Z,1030.45
2017-04-20T04:34:25.746Z,1030.45
2017-04-20T04:34:51.827Z,1030.45
2017-04-20T04:35:17.929Z,1030.46
2017-04-20T04:35:44.008Z,1030.46
2017-04-20T04:36:10.111Z,1030.42
2017-04-20T04:36:36.191Z,1030.44
2017-04-20T04:37:02.270Z,1030.45
2017-04-20T04:37:28.373Z,1030.42
2017-04-20T04:37:54.453Z,1030.43
2017-04-20T04:38:20.533Z,1030.43
2017-04-20T04:38:46.654Z,1030.41
2017-04-20T04:39:12.759Z,1030.43
2017-04-20T04:39:38.840Z,1030.42
2017-04-20T04:40:04.937Z,1030.42
2017-04-20T04:40:31.002Z,1030.46
2017-04-20T04:40:57.105Z,1030.44
2017-04-20T04:41:23.209Z,1030.42
2017-04-20T04:41:49.316Z,1030.45
2017-04-20T04:42:15.394Z,1030.42
2017-04-20T04:42:41.477Z,1030.42
2017-04-20T04:43:07.604Z,1030.41
2017-04-20T04:43:33.707Z,1030.41
2017-04-20T04:43:59.790Z,1030.43
2017-04-20T04:44:25.913Z,1030.41
2017-04-20T04:44:51.991Z,1030.43
2017-04-20T04:45:18.073Z,1030.42
2017-04-20T04:45:44.154Z,1030.43
2017-04-20T04:46:10.233Z,1030.41
2017-04-20T04:46:36.334Z,1030.42
2017-04-20T04:47:02.518Z,1030.42
2017-04-20T04:47:28.619Z,1030.44
2017-04-20T04:47:54.721Z,1030.4
2017-04-20T04:48:20.801Z,1030.43
2017-04-20T04:48:46.883Z,1030.42
2017-04-20T04:49:13.171Z,1030.45
2017-04-20T04:49:39.252Z,1030.46
2017-04-20T04:50:05.334Z,1030.48
2017-04-20T04:50:31.417Z,1030.48
2017-04-20T04:50:57.497Z,1030.46
2017-04-20T04:51:23.577Z,1030.5
2017-04-20T04:51:49.678Z,1030.48
2017-04-20T04:52:15.760Z,1030.49
2017-04-20T04:52:41.840Z,1030.45
2017-04-20T04:53:07.918Z,1030.48
2017-04-20T04:53:34.018Z,1030.48
2017-04-20T04:54:00.145Z,1030.43
2017-04-20T04:54:26.229Z,1030.46
2017-04-20T04:54:52.334Z,1030.46
2017-04-20T04:55:18.416Z,1030.5
2017-04-20T04:55:44.498Z,1030.49
2017-04-20T04:56:10.578Z,1030.43
2017-04-20T04:56:36.657Z,1030.46
2017-04-20T04:57:02.759Z,1030.47
2017-04-20T04:57:28.844Z,1030.51
2017-04-20T04:57:54.948Z,1030.48
2017-04-20T04:58:21.049Z,1030.46
2017-04-20T04:58:47.127Z,1030.48
2017-04-20T04:59:13.208Z,1030.47
2017-04-20T04:59:39.288Z,1030.46
2017-04-20T05:00:05.386Z,1030.45
2017-04-20T05:00:31.578Z,1030.48
2017-04-20T05:00:57.657Z,1030.42
2017-04-20T05:01:23.736Z,1030.46
2017-04-20T05:01:49.819Z,1030.43
2017-04-20T05:02:15.897Z,1030.46
2017-04-20T05:02:41.976Z,1030.43
2017-04-20T05:03:08.058Z,1030.45
2017-04-20T05:03:34.164Z,1030.42
2017-04-20T05:04:00.269Z,1030.43
2017-04-20T05:04:26.350Z,1030.42
2017-04-20T05:04:52.428Z,1030.46
2017-04-20T05:05:18.506Z,1030.41
2017-04-20T05:05:44.587Z,1030.45
2017-04-20T05:06:10.667Z,1030.43
2017-04-20T05:06:36.745Z,1030.43
2017-04-20T05:07:02.848Z,1030.42
2017-04-20T05:07:28.929Z,1030.43
2017-04-20T05:07:55.010Z,1030.4
2017-04-20T05:08:21.118Z,1030.42
2017-04-20T05:08:47.197Z,1030.46
2017-04-20T05:09:13.277Z,1030.45
2017-04-20T05:09:39.536Z,1030.45
2017-04-20T05:10:05.617Z,1030.45
2017-04-20T05:10:31.784Z,1030.45
2017-04-20T05:10:57.890Z,1030.46
2017-04-20T05:11:23.972Z,1030.45
2017-04-20T05:11:50.052Z,1030.49
2017-04-20T05:12:16.129Z,1030.49
2017-04-20T05:12:42.230Z,1030.51
2017-04-20T05:13:08.312Z,1030.45
2017-04-20T05:13:34.391Z,1030.49
2017-04-20T05:14:00.472Z,1030.53
2017-04-20T05:14:26.574Z,1030.51
2017-04-20T05:14:52.653Z,1030.46
2017-04-20T05:15:18.784Z,1030.5
2017-04-20T05:15:44.864Z,1030.48
2017-04-20T05:16:10.960Z,1030.49
2017-04-20T05:16:37.067Z,1030.51